Time;durP1;ratioP1;P1;durP2;ratioP2;P2;SDS_P1;SDS_P2;PMS_P1;PMS_P2;Temp;Humidity;BMP_temperature;BMP_pressure;BME280_temperature;BME280_humidity;BME280_pressure;Samples;Min_cycle;Max_cycle;Signal;HPM_P1;HPM_P2
2022/04/01 00:10:37;;;;;;;16.60;6.23;;;;;;;10.71;71.99;99303.22;30864054;28;20058;-72
2022/04/01 00:25:40;;;;;;;14.87;5.43;;;;;;;11.04;70.21;99298.25;30860790;28;20083;-72
2022/04/01 00:40:42;;;;;;;10.60;4.53;;;;;;;11.25;68.67;99286.66;30856604;28;20081;-74
2022/04/01 00:55:46;;;;;;;13.60;5.80;;;;;;;11.44;66.72;99273.19;30855414;28;20090;-74
2022/04/01 01:10:49;;;;;;;21.40;5.60;;;;;;;11.55;65.21;99287.16;30853473;28;20487;-73
2022/04/01 01:25:51;;;;;;;11.67;4.63;;;;;;;11.66;65.16;99243.25;30860846;28;20078;-73
2022/04/01 01:40:54;;;;;;;11.37;4.47;;;;;;;11.68;64.79;99246.28;30879976;28;20078;-73
2022/04/01 01:55:56;;;;;;;17.80;4.70;;;;;;;11.60;64.66;99240.34;30861942;28;20051;-73
2022/04/01 02:10:58;;;;;;;17.10;5.27;;;;;;;11.60;64.44;99215.88;30849630;28;20432;-73
2022/04/01 02:26:01;;;;;;;9.13;4.33;;;;;;;11.67;63.38;99212.91;30881680;28;20070;-73
2022/04/01 02:41:03;;;;;;;8.57;2.80;;;;;;;11.55;63.28;99200.16;30870434;28;20046;-73
2022/04/01 02:56:05;;;;;;;15.43;4.90;;;;;;;11.55;63.19;99192.00;30874724;28;20131;-73
2022/04/01 03:11:07;;;;;;;14.57;5.03;;;;;;;11.49;63.15;99169.34;30866428;28;20103;-73
2022/04/01 03:26:10;;;;;;;19.47;3.70;;;;;;;11.46;63.05;99160.13;30875456;28;20173;-74
2022/04/01 03:41:13;;;;;;;19.53;5.93;;;;;;;11.44;62.68;99156.31;30870048;28;20043;-74
2022/04/01 03:56:21;;;;;;;9.67;4.00;;;;;;;11.33;62.98;99166.84;30847096;28;20088;-74
2022/04/01 04:11:28;;;;;;;9.77;3.50;;;;;;;11.28;63.04;99149.16;30861000;28;20046;-73
2022/04/01 04:26:38;;;;;;;16.30;4.10;;;;;;;11.35;62.23;99137.25;30874549;28;20384;-73
2022/04/01 04:41:42;;;;;;;17.23;4.43;;;;;;;11.58;60.88;99123.16;30856966;28;20102;-73
2022/04/01 04:56:45;;;;;;;10.50;5.13;;;;;;;11.92;59.44;99128.41;30853601;28;20074;-74
2022/04/01 05:12:28;;;;;;;13.30;4.47;;;;;;;12.41;56.63;99127.56;30846335;28;20145;-73
2022/04/01 05:27:41;;;;;;;8.73;3.50;;;;;;;13.11;53.13;99106.56;30833133;28;20070;-74
2022/04/01 05:42:45;;;;;;;11.77;3.70;;;;;;;13.88;50.83;99084.25;30874735;28;20152;-73
2022/04/01 05:57:47;;;;;;;10.43;3.97;;;;;;;14.59;48.93;99102.53;30906494;28;20047;-73
2022/04/01 06:12:55;;;;;;;16.10;4.87;;;;;;;15.16;47.09;99103.00;30878869;28;20053;-72
2022/04/01 06:28:24;;;;;;;21.17;4.70;;;;;;;15.92;45.28;99081.22;30868093;28;20062;-77
2022/04/01 06:43:27;;;;;;;14.83;4.70;;;;;;;16.47;44.73;99086.56;30885529;28;20085;-76
2022/04/01 06:58:30;;;;;;;17.13;3.93;;;;;;;16.81;44.53;99098.63;30850962;28;20043;-77
2022/04/01 07:13:33;;;;;;;20.20;5.23;;;;;;;17.60;43.99;99088.97;30852294;28;20054;-77
2022/04/01 07:28:36;;;;;;;17.98;4.50;;;;;;;18.42;42.60;99097.34;30871382;28;20055;-77
2022/04/01 07:43:58;;;;;;;19.10;3.72;;;;;;;19.06;41.62;99101.94;30868706;28;20068;-75
2022/04/01 07:59:04;;;;;;;30.80;4.17;;;;;;;20.15;39.73;99044.88;30899360;28;20057;-77
2022/04/01 08:14:07;;;;;;;19.08;4.75;;;;;;;20.99;37.65;99053.34;30879486;28;20411;-75
2022/04/01 08:29:09;;;;;;;37.97;5.25;;;;;;;21.17;38.08;99049.91;30865085;28;20058;-74
2022/04/01 08:44:14;;;;;;;25.53;4.93;;;;;;;21.73;36.16;99005.19;30859866;28;20055;-81
2022/04/01 08:59:16;;;;;;;36.22;6.13;;;;;;;22.72;34.92;98984.91;30850250;28;20051;-77
2022/04/01 09:14:22;;;;;;;33.93;5.50;;;;;;;22.91;34.29;98987.63;30869679;28;20070;-77
2022/04/01 09:29:25;;;;;;;30.88;5.63;;;;;;;23.58;34.02;98994.72;30853944;28;20179;-75
2022/04/01 09:44:28;;;;;;;;;;;;;;;23.70;33.25;98984.88;30844639;28;20044;-76
2022/04/01 09:59:34;;;;;;;32.35;4.80;;;;;;;23.79;32.69;98992.75;30869968;28;20354;-73
2022/04/01 10:14:40;;;;;;;24.88;4.22;;;;;;;24.07;32.02;98972.75;30862534;28;20460;-73
2022/04/01 10:29:58;;;;;;;37.70;5.10;;;;;;;23.85;32.48;98957.38;30861392;28;20078;-71
2022/04/01 10:45:04;;;;;;;33.53;5.90;;;;;;;23.99;31.75;98944.94;30884175;28;20078;-76
2022/04/01 11:00:14;;;;;;;52.22;6.03;;;;;;;24.04;30.63;98946.09;30881729;28;20464;-78
2022/04/01 11:15:24;;;;;;;31.13;5.57;;;;;;;23.07;31.12;98945.06;30867410;28;20082;-78
2022/04/01 11:30:29;;;;;;;27.92;5.05;;;;;;;22.95;31.29;98929.94;30745033;28;20098;-75
2022/04/01 11:45:35;;;;;;;32.45;6.45;;;;;;;22.58;30.60;98909.47;30746842;28;20138;-74
2022/04/01 12:00:37;;;;;;;35.03;5.65;;;;;;;22.38;30.73;98921.13;30728076;28;20159;-76
2022/04/01 12:15:42;;;;;;;45.07;10.03;;;;;;;22.37;29.12;98872.63;30744896;28;20081;-77
2022/04/01 12:30:48;;;;;;;48.28;8.98;;;;;;;22.37;29.41;98873.38;30863453;28;20480;-75
2022/04/01 12:46:01;;;;;;;50.90;8.98;;;;;;;22.34;28.49;98865.38;30858611;28;20058;-73
2022/04/01 13:01:07;;;;;;;35.47;5.63;;;;;;;22.19;28.15;98840.28;30866942;28;20146;-77
2022/04/01 13:16:13;;;;;;;49.28;6.00;;;;;;;21.92;28.06;98829.13;30836958;28;20071;-75
2022/04/01 13:31:16;;;;;;;42.15;6.72;;;;;;;21.59;28.53;98846.19;30731241;28;20438;-77
2022/04/01 13:46:19;;;;;;;33.73;6.87;;;;;;;21.37;28.48;98836.19;30750420;28;20086;-73
2022/04/01 14:01:22;;;;;;;50.35;7.80;;;;;;;21.27;27.41;98844.09;30768947;28;20079;-74
2022/04/01 14:16:25;;;;;;;48.00;7.90;;;;;;;21.13;27.08;98831.47;30761347;28;20098;-76
2022/04/01 14:31:27;;;;;;;39.43;6.47;;;;;;;21.05;25.43;98842.34;30876074;28;20038;-76
2022/04/01 14:46:30;;;;;;;43.40;6.30;;;;;;;20.92;24.82;98822.19;30862328;28;20050;-75
2022/04/01 15:01:33;;;;;;;35.43;7.40;;;;;;;20.75;24.76;98823.16;30847556;28;20043;-77
2022/04/01 15:16:37;;;;;;;40.27;6.83;;;;;;;20.49;25.91;98835.97;30844760;28;20054;-78
2022/04/01 15:31:41;;;;;;;41.67;7.50;;;;;;;20.26;26.61;98838.16;30753313;28;20404;-76
2022/04/01 15:46:43;;;;;;;;;;;;;;;20.04;27.40;98828.06;30750719;28;20062;-75
2022/04/01 16:01:47;;;;;;;43.97;6.25;;;;;;;19.88;27.82;98837.94;30742964;28;20014;-75
2022/04/01 16:16:50;;;;;;;35.47;6.37;;;;;;;19.71;28.31;98834.56;30744312;28;20063;-75
2022/04/01 16:31:52;;;;;;;47.13;6.93;;;;;;;19.57;28.76;98797.16;30748331;28;20059;-73
2022/04/01 16:46:55;;;;;;;36.78;5.20;;;;;;;19.43;29.80;98813.44;30713081;28;20197;-77
2022/04/01 17:01:58;;;;;;;29.55;5.07;;;;;;;19.15;29.92;98840.34;30698133;28;20062;-76
2022/04/01 17:17:01;;;;;;;47.08;5.75;;;;;;;18.86;30.75;98846.50;30745049;28;20415;-76
2022/04/01 17:32:05;;;;;;;27.93;4.63;;;;;;;18.72;30.73;98871.00;30861333;28;20050;-77
2022/04/01 17:47:08;;;;;;;23.87;4.17;;;;;;;18.47;30.60;98877.50;30871034;28;20062;-79
2022/04/01 18:02:14;;;;;;;28.08;5.22;;;;;;;18.26;30.73;98870.78;30855176;28;20431;-76
2022/04/01 18:17:19;;;;;;;22.95;4.88;;;;;;;18.09;30.81;98892.03;30859818;28;20133;-76
2022/04/01 18:32:24;;;;;;;16.65;3.97;;;;;;;17.90;31.28;98886.25;30866754;28;20350;-77
2022/04/01 18:47:27;;;;;;;31.92;5.68;;;;;;;17.71;32.05;98896.97;30871033;28;20069;-76
2022/04/01 19:02:51;;;;;;;27.35;4.78;;;;;;;17.25;34.10;98898.00;30877861;28;20051;-74
2022/04/01 19:18:00;;;;;;;27.38;5.13;;;;;;;16.41;35.73;98896.00;30831332;28;20051;-75
2022/04/01 19:33:06;;;;;;;40.50;5.23;;;;;;;15.76;40.65;98923.81;30856679;28;20063;-78
2022/04/01 19:48:10;;;;;;;24.13;5.43;;;;;;;14.94;44.95;98886.75;30850303;28;20058;-75
2022/04/01 20:03:13;;;;;;;21.87;4.63;;;;;;;14.22;49.29;98872.78;30841853;28;20603;-76
2022/04/01 20:18:16;;;;;;;23.77;5.77;;;;;;;13.96;50.28;98846.06;30830942;28;20070;-75
2022/04/01 20:33:18;;;;;;;27.67;5.67;;;;;;;13.65;51.61;98832.91;30841954;28;20087;-75
2022/04/01 20:48:20;;;;;;;21.30;3.97;;;;;;;13.24;54.00;98831.91;30841785;28;20062;-74
2022/04/01 21:03:22;;;;;;;36.03;4.83;;;;;;;12.93;55.08;98823.34;30828583;28;20062;-75
2022/04/01 21:18:26;;;;;;;26.53;5.53;;;;;;;12.78;56.58;98845.06;30800543;28;20503;-74
2022/04/01 21:33:28;;;;;;;23.67;4.20;;;;;;;12.44;59.59;98843.59;30752187;28;20047;-74
2022/04/01 21:48:30;;;;;;;23.77;5.20;;;;;;;12.46;58.87;98830.28;30806931;28;20134;-75
2022/04/01 22:03:32;;;;;;;24.70;4.90;;;;;;;12.63;57.95;98834.13;30778131;28;20098;-74
2022/04/01 22:18:34;;;;;;;29.53;5.20;;;;;;;12.38;58.95;98823.66;30796500;28;20058;-75
2022/04/01 22:33:36;;;;;;;13.30;4.33;;;;;;;12.27;59.01;98816.00;30761815;28;20104;-74
2022/04/01 22:48:39;;;;;;;33.47;4.70;;;;;;;12.17;60.39;98835.53;30765503;28;20046;-75
2022/04/01 23:03:41;;;;;;;19.47;4.03;;;;;;;11.83;60.65;98802.09;30779645;28;20502;-74
2022/04/01 23:18:45;;;;;;;16.27;3.87;;;;;;;11.86;60.45;98782.16;30842743;28;20074;-73
2022/04/01 23:33:47;;;;;;;13.73;3.83;;;;;;;11.85;60.24;98753.44;30800759;28;20089;-75
2022/04/01 23:48:49;;;;;;;20.13;3.73;;;;;;;11.77;61.00;98727.81;30760193;28;21016;-75
